sensor_id;sensor_type;location;lat;lon;timestamp;P1;durP1;ratioP1;P2;durP2;ratioP2
41709;SDS011;59402;48.396;-4.472;2023-07-31T00:02:14;32.22;;;7.45;;
41709;SDS011;59402;48.396;-4.472;2023-07-31T00:04:39;29.90;;;7.85;;
41709;SDS011;59402;48.396;-4.472;2023-07-31T00:07:05;30.98;;;7.82;;
41709;SDS011;59402;48.396;-4.472;2023-07-31T00:09:32;35.05;;;8.55;;
41709;SDS011;59402;48.396;-4.472;2023-07-31T00:11:57;29.05;;;6.80;;
41709;SDS011;59402;48.396;-4.472;2023-07-31T00:14:22;34.97;;;7.65;;
41709;SDS011;59402;48.396;-4.472;2023-07-31T00:16:48;32.80;;;7.72;;
41709;SDS011;59402;48.396;-4.472;2023-07-31T00:19:13;42.40;;;8.32;;
41709;SDS011;59402;48.396;-4.472;2023-07-31T00:21:38;38.22;;;8.05;;
41709;SDS011;59402;48.396;-4.472;2023-07-31T00:24:03;29.65;;;8.13;;
41709;SDS011;59402;48.396;-4.472;2023-07-31T00:26:29;29.15;;;7.65;;
41709;SDS011;59402;48.396;-4.472;2023-07-31T00:28:54;31.85;;;8.15;;
41709;SDS011;59402;48.396;-4.472;2023-07-31T00:31:20;35.85;;;7.68;;
41709;SDS011;59402;48.396;-4.472;2023-07-31T00:33:47;30.58;;;7.60;;
41709;SDS011;59402;48.396;-4.472;2023-07-31T00:36:12;37.08;;;8.18;;
41709;SDS011;59402;48.396;-4.472;2023-07-31T00:38:37;29.17;;;6.25;;
41709;SDS011;59402;48.396;-4.472;2023-07-31T00:41:03;32.90;;;7.30;;
41709;SDS011;59402;48.396;-4.472;2023-07-31T00:43:28;27.55;;;6.95;;
41709;SDS011;59402;48.396;-4.472;2023-07-31T00:45:53;34.03;;;7.75;;
41709;SDS011;59402;48.396;-4.472;2023-07-31T00:48:19;35.30;;;8.05;;
41709;SDS011;59402;48.396;-4.472;2023-07-31T00:50:44;33.53;;;7.82;;
41709;SDS011;59402;48.396;-4.472;2023-07-31T00:53:09;30.40;;;7.53;;
41709;SDS011;59402;48.396;-4.472;2023-07-31T00:55:35;33.15;;;7.40;;
41709;SDS011;59402;48.396;-4.472;2023-07-31T00:58:00;29.73;;;7.53;;
41709;SDS011;59402;48.396;-4.472;2023-07-31T01:00:25;34.17;;;7.43;;
41709;SDS011;59402;48.396;-4.472;2023-07-31T01:02:51;31.75;;;7.90;;
41709;SDS011;59402;48.396;-4.472;2023-07-31T01:05:17;35.55;;;8.05;;
41709;SDS011;59402;48.396;-4.472;2023-07-31T01:10:21;34.45;;;8.57;;
41709;SDS011;59402;48.396;-4.472;2023-07-31T01:12:48;35.10;;;8.45;;
41709;SDS011;59402;48.396;-4.472;2023-07-31T01:15:15;33.57;;;7.63;;
41709;SDS011;59402;48.396;-4.472;2023-07-31T01:17:42;36.20;;;8.15;;
41709;SDS011;59402;48.396;-4.472;2023-07-31T01:20:13;36.92;;;8.65;;
41709;SDS011;59402;48.396;-4.472;2023-07-31T01:28:00;35.03;;;8.80;;
41709;SDS011;59402;48.396;-4.472;2023-07-31T01:30:28;40.07;;;9.00;;
41709;SDS011;59402;48.396;-4.472;2023-07-31T01:32:54;34.88;;;8.30;;
41709;SDS011;59402;48.396;-4.472;2023-07-31T01:35:21;38.03;;;8.73;;
41709;SDS011;59402;48.396;-4.472;2023-07-31T01:37:46;34.78;;;8.40;;
41709;SDS011;59402;48.396;-4.472;2023-07-31T01:40:11;42.15;;;8.70;;
41709;SDS011;59402;48.396;-4.472;2023-07-31T01:42:37;40.53;;;8.82;;
41709;SDS011;59402;48.396;-4.472;2023-07-31T01:45:02;45.97;;;9.23;;
41709;SDS011;59402;48.396;-4.472;2023-07-31T01:47:28;45.63;;;9.50;;
41709;SDS011;59402;48.396;-4.472;2023-07-31T01:49:53;38.60;;;9.18;;
41709;SDS011;59402;48.396;-4.472;2023-07-31T01:52:18;39.05;;;9.52;;
41709;SDS011;59402;48.396;-4.472;2023-07-31T01:54:43;36.88;;;8.90;;
41709;SDS011;59402;48.396;-4.472;2023-07-31T01:57:09;42.90;;;10.23;;
41709;SDS011;59402;48.396;-4.472;2023-07-31T01:59:34;34.30;;;9.80;;
41709;SDS011;59402;48.396;-4.472;2023-07-31T02:02:00;35.55;;;8.88;;
41709;SDS011;59402;48.396;-4.472;2023-07-31T02:04:25;40.63;;;10.55;;
41709;SDS011;59402;48.396;-4.472;2023-07-31T02:06:50;38.50;;;9.52;;
41709;SDS011;59402;48.396;-4.472;2023-07-31T02:09:16;42.25;;;9.60;;
41709;SDS011;59402;48.396;-4.472;2023-07-31T02:11:41;38.92;;;10.60;;
41709;SDS011;59402;48.396;-4.472;2023-07-31T02:14:06;35.75;;;9.77;;
41709;SDS011;59402;48.396;-4.472;2023-07-31T02:16:31;37.70;;;8.90;;
41709;SDS011;59402;48.396;-4.472;2023-07-31T02:18:57;37.40;;;9.15;;
41709;SDS011;59402;48.396;-4.472;2023-07-31T02:21:22;42.28;;;9.27;;
41709;SDS011;59402;48.396;-4.472;2023-07-31T02:23:48;36.85;;;9.77;;
41709;SDS011;59402;48.396;-4.472;2023-07-31T02:26:13;50.35;;;10.57;;
41709;SDS011;59402;48.396;-4.472;2023-07-31T02:28:38;44.92;;;10.90;;
41709;SDS011;59402;48.396;-4.472;2023-07-31T02:31:04;40.78;;;9.80;;
41709;SDS011;59402;48.396;-4.472;2023-07-31T02:33:29;33.22;;;10.23;;
41709;SDS011;59402;48.396;-4.472;2023-07-31T02:35:54;39.22;;;8.73;;
41709;SDS011;59402;48.396;-4.472;2023-07-31T02:38:21;42.30;;;10.18;;
41709;SDS011;59402;48.396;-4.472;2023-07-31T02:40:47;49.97;;;10.68;;
41709;SDS011;59402;48.396;-4.472;2023-07-31T02:43:13;41.58;;;9.80;;
41709;SDS011;59402;48.396;-4.472;2023-07-31T02:45:38;39.25;;;10.10;;
41709;SDS011;59402;48.396;-4.472;2023-07-31T02:48:04;40.17;;;11.07;;
41709;SDS011;59402;48.396;-4.472;2023-07-31T02:50:29;43.53;;;10.10;;
41709;SDS011;59402;48.396;-4.472;2023-07-31T02:52:54;36.13;;;10.15;;
41709;SDS011;59402;48.396;-4.472;2023-07-31T02:55:20;37.50;;;9.48;;
41709;SDS011;59402;48.396;-4.472;2023-07-31T02:57:45;41.50;;;11.38;;
41709;SDS011;59402;48.396;-4.472;2023-07-31T03:00:10;41.55;;;10.68;;
41709;SDS011;59402;48.396;-4.472;2023-07-31T03:02:36;40.35;;;10.40;;
41709;SDS011;59402;48.396;-4.472;2023-07-31T03:05:01;40.83;;;10.68;;
41709;SDS011;59402;48.396;-4.472;2023-07-31T03:07:26;48.78;;;11.30;;
41709;SDS011;59402;48.396;-4.472;2023-07-31T03:09:52;67.95;;;13.50;;
41709;SDS011;59402;48.396;-4.472;2023-07-31T03:12:17;51.33;;;12.70;;
41709;SDS011;59402;48.396;-4.472;2023-07-31T03:14:43;45.47;;;11.52;;
41709;SDS011;59402;48.396;-4.472;2023-07-31T03:17:08;43.35;;;11.30;;
41709;SDS011;59402;48.396;-4.472;2023-07-31T03:19:33;44.10;;;12.13;;
41709;SDS011;59402;48.396;-4.472;2023-07-31T03:21:59;54.30;;;13.82;;
41709;SDS011;59402;48.396;-4.472;2023-07-31T03:24:25;53.20;;;13.00;;
41709;SDS011;59402;48.396;-4.472;2023-07-31T03:26:50;52.25;;;14.40;;
41709;SDS011;59402;48.396;-4.472;2023-07-31T03:29:15;54.58;;;14.23;;
41709;SDS011;59402;48.396;-4.472;2023-07-31T03:31:41;49.72;;;13.00;;
41709;SDS011;59402;48.396;-4.472;2023-07-31T03:34:06;48.45;;;11.95;;
41709;SDS011;59402;48.396;-4.472;2023-07-31T03:36:32;46.75;;;12.15;;
41709;SDS011;59402;48.396;-4.472;2023-07-31T03:38:57;47.17;;;12.32;;
41709;SDS011;59402;48.396;-4.472;2023-07-31T03:41:22;55.20;;;12.82;;
41709;SDS011;59402;48.396;-4.472;2023-07-31T03:43:49;46.70;;;13.57;;
41709;SDS011;59402;48.396;-4.472;2023-07-31T03:46:16;39.40;;;9.98;;
41709;SDS011;59402;48.396;-4.472;2023-07-31T03:48:41;50.50;;;11.48;;
41709;SDS011;59402;48.396;-4.472;2023-07-31T03:51:07;46.03;;;10.32;;
41709;SDS011;59402;48.396;-4.472;2023-07-31T03:53:32;54.35;;;11.90;;
41709;SDS011;59402;48.396;-4.472;2023-07-31T03:55:57;47.90;;;11.40;;
41709;SDS011;59402;48.396;-4.472;2023-07-31T03:58:23;58.00;;;10.68;;
41709;SDS011;59402;48.396;-4.472;2023-07-31T04:00:48;48.20;;;11.80;;
41709;SDS011;59402;48.396;-4.472;2023-07-31T04:03:13;45.85;;;11.40;;
41709;SDS011;59402;48.396;-4.472;2023-07-31T04:05:38;49.08;;;11.93;;
41709;SDS011;59402;48.396;-4.472;2023-07-31T04:08:05;63.40;;;12.30;;
41709;SDS011;59402;48.396;-4.472;2023-07-31T04:10:30;54.40;;;13.07;;
41709;SDS011;59402;48.396;-4.472;2023-07-31T04:12:58;53.30;;;12.00;;
41709;SDS011;59402;48.396;-4.472;2023-07-31T04:15:23;51.35;;;12.85;;
41709;SDS011;59402;48.396;-4.472;2023-07-31T04:17:48;53.55;;;12.40;;
41709;SDS011;59402;48.396;-4.472;2023-07-31T04:20:14;66.30;;;14.05;;
41709;SDS011;59402;48.396;-4.472;2023-07-31T04:22:39;56.20;;;14.02;;
41709;SDS011;59402;48.396;-4.472;2023-07-31T04:25:04;63.97;;;13.60;;
41709;SDS011;59402;48.396;-4.472;2023-07-31T04:27:30;58.03;;;13.38;;
41709;SDS011;59402;48.396;-4.472;2023-07-31T04:29:55;54.25;;;12.25;;
41709;SDS011;59402;48.396;-4.472;2023-07-31T04:32:20;58.67;;;12.98;;
41709;SDS011;59402;48.396;-4.472;2023-07-31T04:34:46;59.30;;;12.75;;
41709;SDS011;59402;48.396;-4.472;2023-07-31T04:37:11;55.13;;;12.32;;
41709;SDS011;59402;48.396;-4.472;2023-07-31T04:39:36;57.42;;;12.40;;
41709;SDS011;59402;48.396;-4.472;2023-07-31T04:42:02;59.13;;;12.15;;
41709;SDS011;59402;48.396;-4.472;2023-07-31T04:44:27;46.05;;;12.50;;
41709;SDS011;59402;48.396;-4.472;2023-07-31T04:46:52;58.97;;;12.63;;
41709;SDS011;59402;48.396;-4.472;2023-07-31T04:49:18;49.35;;;12.07;;
41709;SDS011;59402;48.396;-4.472;2023-07-31T04:51:44;62.28;;;12.75;;
41709;SDS011;59402;48.396;-4.472;2023-07-31T04:54:09;57.05;;;12.40;;
41709;SDS011;59402;48.396;-4.472;2023-07-31T04:56:35;50.30;;;11.23;;
41709;SDS011;59402;48.396;-4.472;2023-07-31T04:59:00;51.00;;;10.93;;
41709;SDS011;59402;48.396;-4.472;2023-07-31T05:01:25;58.88;;;12.15;;
41709;SDS011;59402;48.396;-4.472;2023-07-31T05:03:51;56.65;;;11.77;;
41709;SDS011;59402;48.396;-4.472;2023-07-31T05:06:16;50.13;;;11.15;;
41709;SDS011;59402;48.396;-4.472;2023-07-31T05:08:41;52.88;;;11.80;;
41709;SDS011;59402;48.396;-4.472;2023-07-31T05:11:07;56.05;;;12.48;;
41709;SDS011;59402;48.396;-4.472;2023-07-31T05:13:32;58.38;;;12.30;;
41709;SDS011;59402;48.396;-4.472;2023-07-31T05:15:57;53.13;;;11.73;;
41709;SDS011;59402;48.396;-4.472;2023-07-31T05:18:22;52.40;;;11.73;;
41709;SDS011;59402;48.396;-4.472;2023-07-31T05:20:48;53.20;;;12.57;;
41709;SDS011;59402;48.396;-4.472;2023-07-31T05:23:13;56.35;;;12.18;;
41709;SDS011;59402;48.396;-4.472;2023-07-31T05:25:38;48.05;;;12.30;;
41709;SDS011;59402;48.396;-4.472;2023-07-31T05:28:04;49.55;;;11.48;;
41709;SDS011;59402;48.396;-4.472;2023-07-31T05:30:29;49.60;;;12.65;;
41709;SDS011;59402;48.396;-4.472;2023-07-31T05:32:55;47.80;;;11.52;;
41709;SDS011;59402;48.396;-4.472;2023-07-31T05:35:20;51.13;;;12.43;;
41709;SDS011;59402;48.396;-4.472;2023-07-31T05:37:46;41.55;;;11.32;;
41709;SDS011;59402;48.396;-4.472;2023-07-31T05:40:11;49.42;;;11.10;;
41709;SDS011;59402;48.396;-4.472;2023-07-31T05:42:36;44.60;;;10.55;;
41709;SDS011;59402;48.396;-4.472;2023-07-31T05:45:04;56.25;;;11.13;;
41709;SDS011;59402;48.396;-4.472;2023-07-31T05:47:29;41.33;;;10.80;;
41709;SDS011;59402;48.396;-4.472;2023-07-31T05:49:54;45.28;;;11.70;;
41709;SDS011;59402;48.396;-4.472;2023-07-31T05:52:20;61.85;;;12.07;;
41709;SDS011;59402;48.396;-4.472;2023-07-31T05:54:45;52.65;;;11.68;;
41709;SDS011;59402;48.396;-4.472;2023-07-31T05:57:13;53.72;;;11.25;;
41709;SDS011;59402;48.396;-4.472;2023-07-31T05:59:39;52.78;;;11.63;;
41709;SDS011;59402;48.396;-4.472;2023-07-31T06:02:04;57.08;;;11.95;;
41709;SDS011;59402;48.396;-4.472;2023-07-31T06:04:29;52.33;;;10.95;;
41709;SDS011;59402;48.396;-4.472;2023-07-31T06:06:55;47.53;;;11.52;;
41709;SDS011;59402;48.396;-4.472;2023-07-31T06:09:21;51.33;;;11.55;;
41709;SDS011;59402;48.396;-4.472;2023-07-31T06:11:46;51.70;;;12.45;;
41709;SDS011;59402;48.396;-4.472;2023-07-31T06:14:11;54.30;;;11.05;;
41709;SDS011;59402;48.396;-4.472;2023-07-31T06:16:37;61.78;;;11.73;;
41709;SDS011;59402;48.396;-4.472;2023-07-31T06:19:02;53.58;;;11.20;;
41709;SDS011;59402;48.396;-4.472;2023-07-31T06:21:28;52.30;;;10.73;;
41709;SDS011;59402;48.396;-4.472;2023-07-31T06:23:53;56.55;;;10.93;;
41709;SDS011;59402;48.396;-4.472;2023-07-31T06:26:18;54.08;;;10.55;;
41709;SDS011;59402;48.396;-4.472;2023-07-31T06:28:44;45.67;;;10.15;;
41709;SDS011;59402;48.396;-4.472;2023-07-31T06:31:09;55.53;;;11.13;;
41709;SDS011;59402;48.396;-4.472;2023-07-31T06:33:34;48.05;;;11.18;;
41709;SDS011;59402;48.396;-4.472;2023-07-31T06:36:00;55.88;;;11.50;;
41709;SDS011;59402;48.396;-4.472;2023-07-31T06:38:26;51.60;;;13.43;;
41709;SDS011;59402;48.396;-4.472;2023-07-31T06:40:52;48.92;;;11.43;;
41709;SDS011;59402;48.396;-4.472;2023-07-31T06:43:17;54.25;;;11.63;;
41709;SDS011;59402;48.396;-4.472;2023-07-31T06:45:43;57.22;;;11.73;;
41709;SDS011;59402;48.396;-4.472;2023-07-31T06:48:08;67.20;;;13.02;;
41709;SDS011;59402;48.396;-4.472;2023-07-31T06:50:34;58.88;;;11.93;;
41709;SDS011;59402;48.396;-4.472;2023-07-31T06:52:59;50.05;;;11.25;;
41709;SDS011;59402;48.396;-4.472;2023-07-31T06:55:25;56.33;;;12.55;;
41709;SDS011;59402;48.396;-4.472;2023-07-31T06:57:51;59.13;;;11.45;;
41709;SDS011;59402;48.396;-4.472;2023-07-31T07:00:17;47.50;;;11.15;;
41709;SDS011;59402;48.396;-4.472;2023-07-31T07:02:42;50.40;;;11.93;;
41709;SDS011;59402;48.396;-4.472;2023-07-31T07:05:08;44.60;;;10.25;;
41709;SDS011;59402;48.396;-4.472;2023-07-31T07:07:33;38.97;;;9.40;;
41709;SDS011;59402;48.396;-4.472;2023-07-31T07:09:59;44.15;;;9.70;;
41709;SDS011;59402;48.396;-4.472;2023-07-31T07:12:29;36.85;;;8.60;;
41709;SDS011;59402;48.396;-4.472;2023-07-31T07:14:54;52.33;;;9.73;;
41709;SDS011;59402;48.396;-4.472;2023-07-31T07:17:20;48.78;;;9.13;;
41709;SDS011;59402;48.396;-4.472;2023-07-31T07:19:45;58.35;;;10.48;;
41709;SDS011;59402;48.396;-4.472;2023-07-31T07:22:11;50.17;;;10.65;;
41709;SDS011;59402;48.396;-4.472;2023-07-31T07:24:36;66.22;;;9.98;;
41709;SDS011;59402;48.396;-4.472;2023-07-31T07:27:01;62.75;;;11.75;;
41709;SDS011;59402;48.396;-4.472;2023-07-31T07:29:27;94.80;;;12.00;;
41709;SDS011;59402;48.396;-4.472;2023-07-31T07:31:52;68.13;;;10.52;;
41709;SDS011;59402;48.396;-4.472;2023-07-31T07:34:17;86.40;;;11.50;;
41709;SDS011;59402;48.396;-4.472;2023-07-31T07:36:42;76.13;;;11.13;;
41709;SDS011;59402;48.396;-4.472;2023-07-31T07:39:09;154.60;;;13.20;;
41709;SDS011;59402;48.396;-4.472;2023-07-31T07:41:35;44.63;;;9.18;;
41709;SDS011;59402;48.396;-4.472;2023-07-31T07:44:00;37.10;;;8.35;;
41709;SDS011;59402;48.396;-4.472;2023-07-31T07:46:25;35.80;;;7.82;;
41709;SDS011;59402;48.396;-4.472;2023-07-31T07:48:51;47.45;;;9.25;;
41709;SDS011;59402;48.396;-4.472;2023-07-31T07:51:16;33.90;;;7.85;;
41709;SDS011;59402;48.396;-4.472;2023-07-31T07:53:41;55.63;;;10.07;;
41709;SDS011;59402;48.396;-4.472;2023-07-31T07:56:06;32.72;;;8.55;;
41709;SDS011;59402;48.396;-4.472;2023-07-31T07:58:32;35.55;;;9.23;;
41709;SDS011;59402;48.396;-4.472;2023-07-31T08:00:57;42.42;;;10.55;;
41709;SDS011;59402;48.396;-4.472;2023-07-31T08:03:23;45.83;;;10.35;;
41709;SDS011;59402;48.396;-4.472;2023-07-31T08:05:48;54.97;;;11.13;;
41709;SDS011;59402;48.396;-4.472;2023-07-31T08:08:16;56.75;;;11.35;;
41709;SDS011;59402;48.396;-4.472;2023-07-31T08:10:42;65.22;;;10.77;;
41709;SDS011;59402;48.396;-4.472;2023-07-31T08:13:09;137.15;;;14.38;;
41709;SDS011;59402;48.396;-4.472;2023-07-31T08:15:34;199.83;;;17.67;;
41709;SDS011;59402;48.396;-4.472;2023-07-31T08:17:59;335.58;;;21.55;;
41709;SDS011;59402;48.396;-4.472;2023-07-31T08:20:26;259.10;;;18.13;;
41709;SDS011;59402;48.396;-4.472;2023-07-31T08:22:51;224.40;;;16.48;;
41709;SDS011;59402;48.396;-4.472;2023-07-31T08:25:18;299.48;;;19.90;;
41709;SDS011;59402;48.396;-4.472;2023-07-31T08:27:43;270.73;;;20.55;;
41709;SDS011;59402;48.396;-4.472;2023-07-31T08:30:09;434.45;;;25.00;;
41709;SDS011;59402;48.396;-4.472;2023-07-31T08:32:34;485.58;;;26.27;;
41709;SDS011;59402;48.396;-4.472;2023-07-31T08:34:59;281.08;;;19.55;;
41709;SDS011;59402;48.396;-4.472;2023-07-31T08:37:25;531.33;;;29.88;;
41709;SDS011;59402;48.396;-4.472;2023-07-31T08:39:50;326.50;;;20.25;;
41709;SDS011;59402;48.396;-4.472;2023-07-31T08:42:16;501.52;;;27.02;;
41709;SDS011;59402;48.396;-4.472;2023-07-31T08:44:41;578.00;;;31.52;;
41709;SDS011;59402;48.396;-4.472;2023-07-31T08:47:07;535.45;;;29.17;;
41709;SDS011;59402;48.396;-4.472;2023-07-31T08:49:33;181.00;;;16.33;;
41709;SDS011;59402;48.396;-4.472;2023-07-31T08:51:59;186.25;;;17.08;;
41709;SDS011;59402;48.396;-4.472;2023-07-31T08:54:24;143.05;;;13.65;;
41709;SDS011;59402;48.396;-4.472;2023-07-31T08:56:49;74.65;;;10.60;;
41709;SDS011;59402;48.396;-4.472;2023-07-31T08:59:15;63.05;;;10.25;;
41709;SDS011;59402;48.396;-4.472;2023-07-31T09:01:43;62.15;;;8.25;;
41709;SDS011;59402;48.396;-4.472;2023-07-31T09:04:09;68.00;;;9.60;;
41709;SDS011;59402;48.396;-4.472;2023-07-31T09:06:34;41.40;;;9.15;;
41709;SDS011;59402;48.396;-4.472;2023-07-31T09:09:00;55.13;;;7.90;;
41709;SDS011;59402;48.396;-4.472;2023-07-31T09:11:25;59.33;;;10.27;;
41709;SDS011;59402;48.396;-4.472;2023-07-31T09:13:52;184.18;;;13.35;;
41709;SDS011;59402;48.396;-4.472;2023-07-31T09:16:17;270.27;;;15.13;;
41709;SDS011;59402;48.396;-4.472;2023-07-31T09:18:52;279.33;;;17.50;;
41709;SDS011;59402;48.396;-4.472;2023-07-31T09:21:18;354.30;;;19.80;;
41709;SDS011;59402;48.396;-4.472;2023-07-31T09:23:44;276.75;;;18.20;;
41709;SDS011;59402;48.396;-4.472;2023-07-31T09:26:10;158.50;;;15.13;;
41709;SDS011;59402;48.396;-4.472;2023-07-31T09:28:35;96.15;;;12.73;;
41709;SDS011;59402;48.396;-4.472;2023-07-31T09:31:01;98.60;;;11.18;;
41709;SDS011;59402;48.396;-4.472;2023-07-31T09:33:26;116.68;;;11.85;;
41709;SDS011;59402;48.396;-4.472;2023-07-31T09:35:51;99.30;;;11.98;;
41709;SDS011;59402;48.396;-4.472;2023-07-31T09:38:17;307.20;;;18.88;;
41709;SDS011;59402;48.396;-4.472;2023-07-31T09:40:43;205.73;;;15.98;;
41709;SDS011;59402;48.396;-4.472;2023-07-31T09:43:10;180.98;;;15.38;;
41709;SDS011;59402;48.396;-4.472;2023-07-31T09:45:36;167.00;;;12.87;;
41709;SDS011;59402;48.396;-4.472;2023-07-31T09:48:02;214.18;;;16.05;;
41709;SDS011;59402;48.396;-4.472;2023-07-31T09:50:28;335.38;;;20.73;;
41709;SDS011;59402;48.396;-4.472;2023-07-31T09:52:54;56.67;;;9.63;;
41709;SDS011;59402;48.396;-4.472;2023-07-31T09:55:19;49.55;;;9.48;;
41709;SDS011;59402;48.396;-4.472;2023-07-31T09:57:45;56.35;;;9.77;;
41709;SDS011;59402;48.396;-4.472;2023-07-31T10:00:12;60.57;;;11.40;;
41709;SDS011;59402;48.396;-4.472;2023-07-31T10:02:37;45.38;;;9.40;;
41709;SDS011;59402;48.396;-4.472;2023-07-31T10:05:03;92.47;;;12.48;;
41709;SDS011;59402;48.396;-4.472;2023-07-31T10:07:29;62.45;;;12.43;;
41709;SDS011;59402;48.396;-4.472;2023-07-31T10:09:55;85.53;;;14.13;;
41709;SDS011;59402;48.396;-4.472;2023-07-31T10:12:21;66.85;;;12.32;;
41709;SDS011;59402;48.396;-4.472;2023-07-31T10:14:49;62.28;;;11.65;;
41709;SDS011;59402;48.396;-4.472;2023-07-31T10:17:15;68.18;;;14.25;;
41709;SDS011;59402;48.396;-4.472;2023-07-31T10:19:42;52.78;;;11.82;;
41709;SDS011;59402;48.396;-4.472;2023-07-31T10:22:08;62.10;;;13.52;;
41709;SDS011;59402;48.396;-4.472;2023-07-31T10:24:34;37.38;;;11.05;;
41709;SDS011;59402;48.396;-4.472;2023-07-31T10:27:00;56.65;;;13.73;;
41709;SDS011;59402;48.396;-4.472;2023-07-31T10:29:26;44.08;;;11.48;;
41709;SDS011;59402;48.396;-4.472;2023-07-31T10:31:52;65.43;;;13.52;;
41709;SDS011;59402;48.396;-4.472;2023-07-31T10:34:19;50.95;;;12.35;;
41709;SDS011;59402;48.396;-4.472;2023-07-31T10:36:44;42.85;;;12.23;;
41709;SDS011;59402;48.396;-4.472;2023-07-31T10:41:54;136.15;;;16.17;;
41709;SDS011;59402;48.396;-4.472;2023-07-31T10:44:19;167.05;;;16.98;;
41709;SDS011;59402;48.396;-4.472;2023-07-31T10:46:45;75.18;;;13.27;;
41709;SDS011;59402;48.396;-4.472;2023-07-31T10:49:10;52.10;;;11.50;;
41709;SDS011;59402;48.396;-4.472;2023-07-31T10:51:46;134.20;;;15.70;;
41709;SDS011;59402;48.396;-4.472;2023-07-31T10:54:15;56.15;;;11.52;;
41709;SDS011;59402;48.396;-4.472;2023-07-31T10:56:46;216.65;;;17.20;;
41709;SDS011;59402;48.396;-4.472;2023-07-31T10:59:12;300.42;;;21.88;;
41709;SDS011;59402;48.396;-4.472;2023-07-31T20:16:46;6.18;;;2.00;;
41709;SDS011;59402;48.396;-4.472;2023-07-31T20:19:11;11.40;;;2.60;;
41709;SDS011;59402;48.396;-4.472;2023-07-31T20:21:37;9.20;;;2.80;;
41709;SDS011;59402;48.396;-4.472;2023-07-31T20:24:07;9.25;;;3.05;;
41709;SDS011;59402;48.396;-4.472;2023-07-31T20:26:32;9.20;;;4.27;;
41709;SDS011;59402;48.396;-4.472;2023-07-31T20:28:58;8.10;;;3.42;;
41709;SDS011;59402;48.396;-4.472;2023-07-31T20:31:23;11.95;;;4.25;;
41709;SDS011;59402;48.396;-4.472;2023-07-31T20:33:49;11.20;;;3.80;;
41709;SDS011;59402;48.396;-4.472;2023-07-31T20:36:14;8.25;;;3.33;;
41709;SDS011;59402;48.396;-4.472;2023-07-31T20:38:39;10.45;;;3.03;;
41709;SDS011;59402;48.396;-4.472;2023-07-31T20:41:05;6.78;;;3.60;;
41709;SDS011;59402;48.396;-4.472;2023-07-31T20:43:30;8.13;;;3.63;;
41709;SDS011;59402;48.396;-4.472;2023-07-31T20:45:55;9.85;;;4.80;;
41709;SDS011;59402;48.396;-4.472;2023-07-31T20:48:21;15.35;;;5.03;;
41709;SDS011;59402;48.396;-4.472;2023-07-31T20:50:46;16.60;;;5.85;;
41709;SDS011;59402;48.396;-4.472;2023-07-31T20:53:13;10.60;;;4.80;;
41709;SDS011;59402;48.396;-4.472;2023-07-31T20:55:38;10.23;;;4.30;;
41709;SDS011;59402;48.396;-4.472;2023-07-31T20:58:03;9.02;;;4.45;;
41709;SDS011;59402;48.396;-4.472;2023-07-31T21:00:29;11.70;;;3.45;;
41709;SDS011;59402;48.396;-4.472;2023-07-31T21:02:54;7.43;;;3.83;;
41709;SDS011;59402;48.396;-4.472;2023-07-31T21:05:20;10.10;;;3.60;;
41709;SDS011;59402;48.396;-4.472;2023-07-31T21:07:45;7.13;;;3.35;;
41709;SDS011;59402;48.396;-4.472;2023-07-31T21:10:10;9.95;;;3.65;;
41709;SDS011;59402;48.396;-4.472;2023-07-31T21:12:37;6.25;;;2.90;;
41709;SDS011;59402;48.396;-4.472;2023-07-31T21:15:05;7.10;;;3.10;;
41709;SDS011;59402;48.396;-4.472;2023-07-31T21:17:31;8.05;;;3.28;;
41709;SDS011;59402;48.396;-4.472;2023-07-31T21:19:56;7.47;;;3.60;;
41709;SDS011;59402;48.396;-4.472;2023-07-31T21:22:21;8.18;;;4.35;;
41709;SDS011;59402;48.396;-4.472;2023-07-31T21:24:47;9.98;;;4.00;;
41709;SDS011;59402;48.396;-4.472;2023-07-31T21:27:12;10.25;;;4.93;;
41709;SDS011;59402;48.396;-4.472;2023-07-31T21:29:38;12.73;;;4.82;;
41709;SDS011;59402;48.396;-4.472;2023-07-31T21:32:03;9.35;;;3.75;;
41709;SDS011;59402;48.396;-4.472;2023-07-31T21:34:28;8.13;;;3.67;;
41709;SDS011;59402;48.396;-4.472;2023-07-31T21:36:54;8.55;;;3.65;;
41709;SDS011;59402;48.396;-4.472;2023-07-31T21:39:19;7.85;;;3.70;;
41709;SDS011;59402;48.396;-4.472;2023-07-31T21:41:45;8.38;;;3.53;;
41709;SDS011;59402;48.396;-4.472;2023-07-31T21:44:10;9.50;;;3.38;;
41709;SDS011;59402;48.396;-4.472;2023-07-31T21:46:36;7.68;;;3.22;;
41709;SDS011;59402;48.396;-4.472;2023-07-31T21:49:01;9.20;;;3.72;;
41709;SDS011;59402;48.396;-4.472;2023-07-31T21:51:27;7.10;;;3.30;;
41709;SDS011;59402;48.396;-4.472;2023-07-31T21:53:52;8.48;;;3.92;;
41709;SDS011;59402;48.396;-4.472;2023-07-31T21:56:17;8.30;;;3.63;;
41709;SDS011;59402;48.396;-4.472;2023-07-31T21:58:42;10.85;;;3.70;;
41709;SDS011;59402;48.396;-4.472;2023-07-31T22:01:08;11.48;;;3.50;;
41709;SDS011;59402;48.396;-4.472;2023-07-31T22:03:33;10.82;;;3.58;;
41709;SDS011;59402;48.396;-4.472;2023-07-31T22:05:58;10.32;;;3.75;;
41709;SDS011;59402;48.396;-4.472;2023-07-31T22:08:24;13.15;;;3.78;;
41709;SDS011;59402;48.396;-4.472;2023-07-31T22:10:49;10.73;;;4.38;;
41709;SDS011;59402;48.396;-4.472;2023-07-31T22:13:14;13.98;;;4.15;;
41709;SDS011;59402;48.396;-4.472;2023-07-31T22:15:40;9.65;;;4.10;;
41709;SDS011;59402;48.396;-4.472;2023-07-31T22:18:05;12.48;;;3.63;;
41709;SDS011;59402;48.396;-4.472;2023-07-31T22:20:31;14.70;;;4.03;;
41709;SDS011;59402;48.396;-4.472;2023-07-31T22:22:56;15.57;;;4.10;;
41709;SDS011;59402;48.396;-4.472;2023-07-31T22:25:21;10.77;;;3.63;;
41709;SDS011;59402;48.396;-4.472;2023-07-31T22:27:47;12.38;;;4.32;;
41709;SDS011;59402;48.396;-4.472;2023-07-31T22:30:12;12.93;;;4.20;;
41709;SDS011;59402;48.396;-4.472;2023-07-31T22:32:37;16.60;;;4.07;;
41709;SDS011;59402;48.396;-4.472;2023-07-31T22:35:03;11.40;;;4.00;;
41709;SDS011;59402;48.396;-4.472;2023-07-31T22:37:28;14.95;;;4.72;;
41709;SDS011;59402;48.396;-4.472;2023-07-31T22:39:53;11.82;;;4.25;;
41709;SDS011;59402;48.396;-4.472;2023-07-31T22:42:19;13.05;;;4.97;;
41709;SDS011;59402;48.396;-4.472;2023-07-31T22:44:44;13.00;;;4.13;;
41709;SDS011;59402;48.396;-4.472;2023-07-31T22:47:09;17.38;;;4.63;;
41709;SDS011;59402;48.396;-4.472;2023-07-31T22:49:35;12.88;;;4.25;;
41709;SDS011;59402;48.396;-4.472;2023-07-31T22:52:00;16.90;;;4.72;;
41709;SDS011;59402;48.396;-4.472;2023-07-31T22:54:25;18.88;;;4.68;;
41709;SDS011;59402;48.396;-4.472;2023-07-31T22:56:51;18.50;;;5.32;;
41709;SDS011;59402;48.396;-4.472;2023-07-31T22:59:16;13.93;;;4.45;;
41709;SDS011;59402;48.396;-4.472;2023-07-31T23:01:41;16.92;;;4.78;;
41709;SDS011;59402;48.396;-4.472;2023-07-31T23:04:06;15.50;;;5.50;;
41709;SDS011;59402;48.396;-4.472;2023-07-31T23:06:32;21.55;;;5.15;;
41709;SDS011;59402;48.396;-4.472;2023-07-31T23:08:57;17.25;;;5.10;;
41709;SDS011;59402;48.396;-4.472;2023-07-31T23:11:22;17.35;;;5.13;;
41709;SDS011;59402;48.396;-4.472;2023-07-31T23:13:48;15.70;;;5.38;;
41709;SDS011;59402;48.396;-4.472;2023-07-31T23:16:13;13.88;;;4.78;;
41709;SDS011;59402;48.396;-4.472;2023-07-31T23:18:39;19.63;;;5.00;;
41709;SDS011;59402;48.396;-4.472;2023-07-31T23:21:04;18.50;;;4.88;;
41709;SDS011;59402;48.396;-4.472;2023-07-31T23:23:30;16.40;;;4.28;;
41709;SDS011;59402;48.396;-4.472;2023-07-31T23:25:56;22.20;;;4.78;;
41709;SDS011;59402;48.396;-4.472;2023-07-31T23:28:21;22.50;;;5.57;;
41709;SDS011;59402;48.396;-4.472;2023-07-31T23:30:47;21.83;;;4.95;;